Time;durP1;ratioP1;P1;durP2;ratioP2;P2;SDS_P1;SDS_P2;PMS_P1;PMS_P2;Temp;Humidity;BMP_temperature;BMP_pressure;BME280_temperature;BME280_humidity;BME280_pressure;Samples;Min_cycle;Max_cycle;Signal;HPM_P1;HPM_P2
2022/12/28 00:03:46;;;;;;;;;;;16.50;72.20;;;;;;10207398;28;97145;-63
2022/12/28 00:08:48;;;;;;;;;;;16.50;72.20;;;;;;10209184;28;94063;-64
2022/12/28 00:13:50;;;;;;;;;;;16.50;72.00;;;;;;10207916;28;93316;-62
2022/12/28 00:18:52;;;;;;;;;;;16.50;71.90;;;;;;10209120;28;94457;-64
2022/12/28 00:23:55;;;;;;;;;;;16.50;71.80;;;;;;10208718;28;93288;-64
2022/12/28 00:28:58;;;;;;;;;;;16.50;71.60;;;;;;10208435;28;93646;-64
2022/12/28 00:34:06;;;;;;;;;;;16.50;71.40;;;;;;10208758;28;94319;-64
2022/12/28 00:39:07;;;;;;;;;;;16.50;71.30;;;;;;10208642;28;93920;-64
2022/12/28 00:44:09;;;;;;;;;;;16.50;71.40;;;;;;10208288;28;93639;-64
2022/12/28 00:49:11;;;;;;;;;;;16.50;71.50;;;;;;10207695;28;93276;-64
2022/12/28 00:54:12;;;;;;;;;;;16.50;71.50;;;;;;10188183;28;96567;-64
2022/12/28 00:59:14;;;;;;;;;;;16.50;71.40;;;;;;10208300;28;93498;-64
2022/12/28 01:04:15;;;;;;;;;;;16.50;71.20;;;;;;10207302;28;93153;-64
2022/12/28 01:09:17;;;;;;;;;;;16.50;71.20;;;;;;10208701;28;93213;-64
2022/12/28 01:14:19;;;;;;;;;;;16.50;71.00;;;;;;10207691;28;94481;-64
2022/12/28 01:19:21;;;;;;;;;;;16.50;70.80;;;;;;10207038;28;93627;-64
2022/12/28 01:24:23;;;;;;;;;;;16.50;70.80;;;;;;10189647;28;93063;-64
2022/12/28 01:29:25;;;;;;;;;;;16.40;70.70;;;;;;10207780;28;92562;-64
2022/12/28 01:34:26;;;;;;;;;;;16.40;70.90;;;;;;10206511;28;93848;-64
2022/12/28 01:39:28;;;;;;;;;;;16.40;70.90;;;;;;10189445;28;93714;-64
2022/12/28 01:44:39;;;;;;;;;;;16.40;70.80;;;;;;10203275;28;96705;-64
2022/12/28 01:49:44;;;;;;;;;;;16.50;70.70;;;;;;10189463;28;93385;-64
2022/12/28 01:54:49;;;;;;;;;;;16.50;70.50;;;;;;10213930;28;94513;-64
2022/12/28 02:00:02;;;;;;;;;;;16.50;70.50;;;;;;10213446;28;93435;-63
2022/12/28 02:05:04;;;;;;;;;;;16.50;70.40;;;;;;10619928;23;94929;-59
2022/12/28 02:10:07;;;;;;;;;;;16.40;70.30;;;;;;10253177;28;94539;-60
2022/12/28 02:15:28;;;;;;;;;;;16.40;70.30;;;;;;10253596;28;96024;-60
2022/12/28 02:20:35;;;;;;;;;;;16.40;70.50;;;;;;10252893;28;92809;-60
2022/12/28 02:25:37;;;;;;;;;;;16.40;70.30;;;;;;10252075;28;94444;-60
2022/12/28 02:30:46;;;;;;;;;;;16.50;70.40;;;;;;10252109;28;94159;-60
2022/12/28 02:35:53;;;;;;;;;;;16.40;70.20;;;;;;10246918;28;96048;-60
2022/12/28 02:40:58;;;;;;;;;;;16.50;70.20;;;;;;10252032;28;94460;-60
2022/12/28 02:51:41;;;;;;;;;;;16.40;70.00;;;;;;10250818;28;94017;-60
2022/12/28 02:56:54;;;;;;;;;;;16.40;70.00;;;;;;10250685;28;93767;-61
2022/12/28 03:02:02;;;;;;;;;;;16.40;70.00;;;;;;10250220;28;93255;-60
2022/12/28 03:12:30;;;;;;;;;;;16.40;70.00;;;;;;10250309;28;92579;-60
2022/12/28 03:33:39;;;;;;;;;;;16.40;69.80;;;;;;10250355;28;93809;-60
2022/12/28 03:39:02;;;;;;;;;;;16.40;69.80;;;;;;10265331;28;94434;-60
2022/12/28 03:44:09;;;;;;;;;;;16.40;69.90;;;;;;10250371;28;93497;-60
2022/12/28 03:49:11;;;;;;;;;;;16.40;69.90;;;;;;10248944;28;94105;-60
2022/12/28 03:54:14;;;;;;;;;;;16.40;69.90;;;;;;10250128;28;92899;-60
2022/12/28 03:59:16;;;;;;;;;;;16.40;69.90;;;;;;10248016;28;93905;-61
2022/12/28 04:04:18;;;;;;;;;;;16.40;69.80;;;;;;10264537;28;92742;-61
2022/12/28 04:09:21;;;;;;;;;;;16.40;69.80;;;;;;10248519;28;93526;-61
2022/12/28 04:14:22;;;;;;;;;;;16.40;69.80;;;;;;10247518;28;92885;-61
2022/12/28 04:19:24;;;;;;;;;;;16.40;69.70;;;;;;10246650;28;95887;-61
2022/12/28 04:24:26;;;;;;;;;;;16.40;69.80;;;;;;10264729;28;93433;-60
2022/12/28 04:29:27;;;;;;;;;;;16.40;69.90;;;;;;10248351;28;93467;-61
2022/12/28 04:34:29;;;;;;;;;;;16.40;69.80;;;;;;10248227;28;95179;-60
2022/12/28 04:39:31;;;;;;;;;;;16.40;69.70;;;;;;10249147;28;93482;-60
2022/12/28 04:44:53;;;;;;;;;;;16.40;69.60;;;;;;10247927;28;95761;-60
2022/12/28 06:07:18;;;;;;;;;;;16.40;69.30;;;;;;10209552;28;93545;-60
2022/12/28 06:12:20;;;;;;;;;;;16.40;69.60;;;;;;10212042;28;93458;-61
2022/12/28 06:17:22;;;;;;;;;;;16.40;69.70;;;;;;10224518;28;95826;-61
2022/12/28 06:22:23;;;;;;;;;;;16.50;69.90;;;;;;10227231;28;94463;-59
2022/12/28 06:27:25;;;;;;;;;;;16.70;69.80;;;;;;10211723;28;94560;-60
2022/12/28 06:32:27;;;;;;;;;;;16.90;69.30;;;;;;10212522;28;94058;-60
2022/12/28 06:37:28;;;;;;;;;;;17.20;68.80;;;;;;10210747;28;94742;-60
2022/12/28 06:42:30;;;;;;;;;;;17.40;68.30;;;;;;10227471;28;94653;-60
2022/12/28 06:47:34;;;;;;;;;;;17.60;67.90;;;;;;10212230;28;94487;-60
2022/12/28 06:52:36;;;;;;;;;;;17.70;67.60;;;;;;10212891;28;92959;-60
2022/12/28 06:57:38;;;;;;;;;;;17.70;67.30;;;;;;10211362;28;93520;-60
2022/12/28 07:02:39;;;;;;;;;;;17.80;67.20;;;;;;10214259;28;93648;-60
2022/12/28 07:07:43;;;;;;;;;;;17.80;67.20;;;;;;10249403;28;96578;-60
2022/12/28 07:12:45;;;;;;;;;;;17.90;67.10;;;;;;10249931;28;93286;-60
2022/12/28 07:17:47;;;;;;;;;;;17.90;67.10;;;;;;10250858;28;93611;-60
2022/12/28 07:22:48;;;;;;;;;;;17.80;67.10;;;;;;10250520;28;93498;-60
2022/12/28 07:27:50;;;;;;;;;;;17.70;67.20;;;;;;10250095;28;93500;-60
2022/12/28 07:32:52;;;;;;;;;;;17.70;67.50;;;;;;10250636;28;94835;-60
2022/12/28 07:37:53;;;;;;;;;;;17.60;67.80;;;;;;10250089;28;94759;-60
2022/12/28 07:42:55;;;;;;;;;;;17.50;67.80;;;;;;10250884;28;93294;-61
2022/12/28 07:47:57;;;;;;;;;;;17.40;68.10;;;;;;10249236;28;93826;-60
2022/12/28 07:52:59;;;;;;;;;;;17.30;68.30;;;;;;10249270;28;93440;-61
2022/12/28 07:58:01;;;;;;;;;;;17.20;68.50;;;;;;10261902;28;96239;-61
2022/12/28 08:03:03;;;;;;;;;;;17.10;68.70;;;;;;10248330;28;94471;-61
2022/12/28 08:08:05;;;;;;;;;;;17.10;69.00;;;;;;10249123;28;93405;-61
2022/12/28 08:13:06;;;;;;;;;;;17.00;69.20;;;;;;10248747;28;93255;-61
2022/12/28 08:18:08;;;;;;;;;;;16.90;69.40;;;;;;10249095;28;92557;-61
2022/12/28 08:23:09;;;;;;;;;;;16.90;69.60;;;;;;10249733;28;92993;-61
2022/12/28 08:28:11;;;;;;;;;;;16.90;70.10;;;;;;10248346;28;94419;-61
2022/12/28 08:33:13;;;;;;;;;;;16.90;70.40;;;;;;10249344;28;92809;-61
2022/12/28 08:38:14;;;;;;;;;;;16.80;70.50;;;;;;10248066;28;93436;-61
2022/12/28 08:43:16;;;;;;;;;;;16.80;70.70;;;;;;10248207;28;94200;-61
2022/12/28 08:48:18;;;;;;;;;;;16.70;70.90;;;;;;10245019;28;95227;-61
2022/12/28 08:53:23;;;;;;;;;;;16.70;70.90;;;;;;10246492;28;93703;-60
2022/12/28 08:58:24;;;;;;;;;;;16.70;71.10;;;;;;10247989;28;93353;-60
2022/12/28 09:03:26;;;;;;;;;;;16.70;71.90;;;;;;10252986;28;94127;-60
2022/12/28 09:08:28;;;;;;;;;;;16.70;72.50;;;;;;10270496;28;94909;-61
2022/12/28 09:13:31;;;;;;;;;;;16.70;72.50;;;;;;10255212;28;93509;-60
2022/12/28 09:18:33;;;;;;;;;;;16.80;72.20;;;;;;10253827;28;93610;-60
2022/12/28 09:23:34;;;;;;;;;;;16.90;72.20;;;;;;10254250;28;93752;-59
2022/12/28 09:28:36;;;;;;;;;;;17.10;72.80;;;;;;10254205;28;94286;-59
2022/12/28 09:39:21;;;;;;;;;;;17.50;71.80;;;;;;10251430;28;95334;-59
2022/12/28 09:44:32;;;;;;;;;;;17.70;71.90;;;;;;10253725;28;93445;-60
2022/12/28 09:49:42;;;;;;;;;;;17.90;71.70;;;;;;10253060;28;94423;-59
2022/12/28 09:54:44;;;;;;;;;;;18.10;71.60;;;;;;10252632;28;93658;-60
2022/12/28 09:59:46;;;;;;;;;;;18.10;71.60;;;;;;10253934;28;94408;-59
2022/12/28 10:04:48;;;;;;;;;;;18.10;71.00;;;;;;10255467;28;93264;-59
2022/12/28 10:09:50;;;;;;;;;;;18.10;70.80;;;;;;10255426;28;94592;-60
2022/12/28 10:14:52;;;;;;;;;;;18.20;70.70;;;;;;10254850;28;92752;-59
2022/12/28 10:19:55;;;;;;;;;;;18.20;70.40;;;;;;10255127;28;93580;-60
2022/12/28 10:24:57;;;;;;;;;;;18.30;70.10;;;;;;10255690;28;93860;-60
2022/12/28 10:30:00;;;;;;;;;;;18.40;70.10;;;;;;10252316;28;97258;-60
2022/12/28 10:35:02;;;;;;;;;;;18.50;70.10;;;;;;10254565;28;94656;-60
2022/12/28 10:40:17;;;;;;;;;;;18.40;70.10;;;;;;10253612;28;93675;-60
2022/12/28 10:45:20;;;;;;;;;;;18.50;70.30;;;;;;10254029;28;93445;-60
2022/12/28 10:50:40;;;;;;;;;;;18.50;70.30;;;;;;10253647;28;93538;-60
2022/12/28 10:55:42;;;;;;;;;;;18.60;70.50;;;;;;10254033;28;94505;-60
2022/12/28 11:00:52;;;;;;;;;;;18.60;70.40;;;;;;10252066;28;94552;-59
2022/12/28 11:06:06;;;;;;;;;;;18.70;70.50;;;;;;10268968;28;92529;-60
2022/12/28 11:11:26;;;;;;;;;;;18.70;70.70;;;;;;10253430;28;93517;-61
2022/12/28 11:16:29;;;;;;;;;;;18.60;70.90;;;;;;10269032;28;93252;-60
2022/12/28 11:21:32;;;;;;;;;;;18.50;71.30;;;;;;10250431;28;95392;-61
2022/12/28 11:26:33;;;;;;;;;;;18.40;71.40;;;;;;10252662;28;94457;-60
2022/12/28 11:31:38;;;;;;;;;;;18.30;72.60;;;;;;10252508;28;94358;-60
2022/12/28 11:36:40;;;;;;;;;;;18.20;73.20;;;;;;10253200;28;92811;-60
2022/12/28 11:41:42;;;;;;;;;;;18.10;73.40;;;;;;10253054;28;94457;-60
2022/12/28 11:47:16;;;;;;;;;;;18.10;73.80;;;;;;10251133;28;93170;-61
2022/12/28 11:52:32;;;;;;;;;;;18.00;74.00;;;;;;10267361;28;94790;-60
2022/12/28 11:57:38;;;;;;;;;;;17.90;74.40;;;;;;10253291;28;92924;-59
2022/12/28 12:02:40;;;;;;;;;;;17.90;74.80;;;;;;10250502;28;94487;-60
2022/12/28 12:07:47;;;;;;;;;;;17.80;75.20;;;;;;10266781;28;94625;-60
2022/12/28 12:12:50;;;;;;;;;;;17.80;75.40;;;;;;10249431;28;96098;-60
2022/12/28 12:18:03;;;;;;;;;;;17.70;75.70;;;;;;10252111;28;92929;-61
2022/12/28 12:23:07;;;;;;;;;;;17.70;76.00;;;;;;10266759;28;93578;-60
2022/12/28 12:28:27;;;;;;;;;;;17.60;76.10;;;;;;10251519;28;93320;-60
2022/12/28 12:33:32;;;;;;;;;;;17.60;76.30;;;;;;10251732;28;93235;-60
2022/12/28 12:38:49;;;;;;;;;;;17.60;76.40;;;;;;10265730;28;93115;-60
2022/12/28 12:44:06;;;;;;;;;;;17.50;76.60;;;;;;10249016;28;93346;-61
2022/12/28 12:49:23;;;;;;;;;;;17.50;76.60;;;;;;10251748;28;92196;-60
2022/12/28 12:54:51;;;;;;;;;;;17.50;76.50;;;;;;10251231;28;93484;-59
2022/12/28 13:00:07;;;;;;;;;;;17.40;76.60;;;;;;10250490;28;94239;-58
2022/12/28 13:05:20;;;;;;;;;;;17.40;76.70;;;;;;10262702;28;96895;-60
2022/12/28 13:10:25;;;;;;;;;;;17.30;76.70;;;;;;10250084;28;94554;-60
2022/12/28 13:15:27;;;;;;;;;;;17.30;76.70;;;;;;10250369;28;93231;-61
2022/12/28 13:20:29;;;;;;;;;;;17.30;76.60;;;;;;10250600;28;94625;-64
2022/12/28 13:25:31;;;;;;;;;;;17.40;77.40;;;;;;10250245;28;93543;-63
2022/12/28 13:30:33;;;;;;;;;;;17.40;79.40;;;;;;10250223;28;94633;-60
2022/12/28 13:35:35;;;;;;;;;;;17.60;78.40;;;;;;10249781;28;93714;-61
2022/12/28 13:40:37;;;;;;;;;;;17.80;77.70;;;;;;10264802;28;93488;-61
2022/12/28 13:45:39;;;;;;;;;;;18.00;76.10;;;;;;10249249;28;93569;-61
2022/12/28 13:50:42;;;;;;;;;;;18.30;75.10;;;;;;10254272;28;93715;-61
2022/12/28 13:55:51;;;;;;;;;;;18.50;74.30;;;;;;10267057;28;95372;-61
2022/12/28 14:00:54;;;;;;;;;;;18.60;73.30;;;;;;10255852;28;93389;-61
2022/12/28 14:05:58;;;;;;;;;;;18.70;72.40;;;;;;10255015;28;93455;-61
2022/12/28 14:11:01;;;;;;;;;;;18.70;71.90;;;;;;10270493;28;94474;-61
2022/12/28 14:16:03;;;;;;;;;;;18.60;71.40;;;;;;10253564;28;93080;-61
2022/12/28 14:21:06;;;;;;;;;;;18.50;71.30;;;;;;10254785;28;93718;-61
2022/12/28 14:26:25;;;;;;;;;;;18.50;71.30;;;;;;10254241;28;93749;-61
2022/12/28 14:31:28;;;;;;;;;;;18.40;71.20;;;;;;10254982;28;93805;-61
2022/12/28 14:36:40;;;;;;;;;;;18.20;71.20;;;;;;10254841;28;94538;-61
2022/12/28 14:41:44;;;;;;;;;;;18.10;71.40;;;;;;10255075;28;92983;-61
2022/12/28 14:46:46;;;;;;;;;;;18.10;71.40;;;;;;10251731;28;96082;-62
2022/12/28 14:51:48;;;;;;;;;;;17.90;71.40;;;;;;10253138;28;94460;-61
2022/12/28 14:57:01;;;;;;;;;;;17.80;71.70;;;;;;10253727;28;94980;-61
2022/12/28 15:02:03;;;;;;;;;;;17.70;71.90;;;;;;10251984;28;93634;-61
2022/12/28 15:07:06;;;;;;;;;;;17.70;71.90;;;;;;10235929;28;93110;-61
2022/12/28 15:12:09;;;;;;;;;;;17.60;72.80;;;;;;10251217;28;93363;-61
2022/12/28 15:17:11;;;;;;;;;;;17.70;73.50;;;;;;10266332;28;93642;-61
2022/12/28 15:22:13;;;;;;;;;;;17.60;74.10;;;;;;10266287;28;92545;-60
2022/12/28 15:27:14;;;;;;;;;;;17.60;74.60;;;;;;10250376;28;94499;-60
2022/12/28 15:32:18;;;;;;;;;;;17.60;75.10;;;;;;10249978;28;114151;-61
2022/12/28 15:37:20;;;;;;;;;;;17.60;75.70;;;;;;10247104;28;96827;-61
2022/12/28 15:42:21;;;;;;;;;;;17.60;75.90;;;;;;10249576;28;93503;-60
2022/12/28 15:47:24;;;;;;;;;;;17.50;76.10;;;;;;10249667;28;94437;-61
2022/12/28 15:52:25;;;;;;;;;;;17.50;76.50;;;;;;10248984;28;93672;-62
2022/12/28 15:57:27;;;;;;;;;;;17.50;76.60;;;;;;10264086;28;93520;-61
2022/12/28 16:02:29;;;;;;;;;;;17.50;76.30;;;;;;10248897;28;94658;-61
2022/12/28 16:07:31;;;;;;;;;;;17.50;76.50;;;;;;10248473;28;94456;-61
2022/12/28 16:12:33;;;;;;;;;;;17.50;76.70;;;;;;10245251;28;92531;-61
2022/12/28 16:17:34;;;;;;;;;;;17.40;77.00;;;;;;10245031;28;94740;-61
2022/12/28 16:22:47;;;;;;;;;;;17.50;77.20;;;;;;10248491;28;93490;-61
2022/12/28 16:27:49;;;;;;;;;;;17.50;77.20;;;;;;10263871;28;95853;-60
2022/12/28 16:32:50;;;;;;;;;;;17.60;77.30;;;;;;10250557;28;93244;-61
2022/12/28 16:37:52;;;;;;;;;;;17.70;76.80;;;;;;10251070;28;93528;-61
2022/12/28 16:42:54;;;;;;;;;;;17.90;76.90;;;;;;10251757;28;93508;-62
2022/12/28 16:47:55;;;;;;;;;;;18.10;76.20;;;;;;10250342;28;94318;-61
2022/12/28 16:52:59;;;;;;;;;;;18.20;75.80;;;;;;10249455;28;93484;-61
2022/12/28 16:58:01;;;;;;;;;;;18.30;75.20;;;;;;10247741;28;93476;-61
2022/12/28 17:03:03;;;;;;;;;;;18.30;74.50;;;;;;10248869;28;93567;-61
2022/12/28 17:08:04;;;;;;;;;;;18.20;74.50;;;;;;10248038;28;93491;-62
2022/12/28 17:13:06;;;;;;;;;;;18.20;74.40;;;;;;10246567;28;93527;-62
2022/12/28 17:18:08;;;;;;;;;;;18.10;74.50;;;;;;10245037;28;96862;-62
2022/12/28 17:23:10;;;;;;;;;;;18.10;74.80;;;;;;10250516;28;93550;-63
2022/12/28 17:28:12;;;;;;;;;;;18.10;76.30;;;;;;10254062;28;93507;-61
2022/12/28 17:33:14;;;;;;;;;;;18.10;78.80;;;;;;10269028;28;93536;-63
2022/12/28 17:38:16;;;;;;;;;;;18.10;79.30;;;;;;10253795;28;93657;-62
2022/12/28 17:43:18;;;;;;;;;;;18.20;77.70;;;;;;10253767;28;93548;-61
2022/12/28 17:48:25;;;;;;;;;;;18.20;76.60;;;;;;10250783;28;93419;-62
2022/12/28 17:53:27;;;;;;;;;;;18.20;76.00;;;;;;10242907;28;92947;-61
2022/12/28 17:58:29;;;;;;;;;;;18.30;76.80;;;;;;10213312;28;93440;-62
2022/12/28 18:03:31;;;;;;;;;;;18.40;75.50;;;;;;10211660;28;93551;-63
2022/12/28 18:08:34;;;;;;;;;;;18.40;75.20;;;;;;10209489;28;96304;-62
2022/12/28 18:13:36;;;;;;;;;;;18.40;74.80;;;;;;10226735;28;94496;-62
2022/12/28 18:18:38;;;;;;;;;;;18.30;74.90;;;;;;10211967;28;94491;-63
2022/12/28 18:23:43;;;;;;;;;;;18.30;75.40;;;;;;10211499;28;93288;-63
2022/12/28 18:28:45;;;;;;;;;;;18.20;75.00;;;;;;10226599;28;93486;-63
2022/12/28 18:33:47;;;;;;;;;;;18.20;75.10;;;;;;10211254;28;93375;-63
2022/12/28 18:38:48;;;;;;;;;;;18.20;75.10;;;;;;10221621;28;93689;-63
2022/12/28 18:43:50;;;;;;;;;;;18.10;75.20;;;;;;10252131;28;92734;-63
2022/12/28 18:48:52;;;;;;;;;;;18.10;75.20;;;;;;10251262;28;94517;-63
2022/12/28 18:53:53;;;;;;;;;;;18.10;75.50;;;;;;10251617;28;93626;-62
2022/12/28 18:58:55;;;;;;;;;;;18.10;75.40;;;;;;10249075;28;96949;-62
2022/12/28 19:03:57;;;;;;;;;;;18.10;75.70;;;;;;10250902;28;93546;-62
2022/12/28 19:09:00;;;;;;;;;;;18.10;75.50;;;;;;10251154;28;94683;-62
2022/12/28 19:14:05;;;;;;;;;;;18.20;75.20;;;;;;10250649;28;93492;-62
2022/12/28 19:19:07;;;;;;;;;;;18.20;74.90;;;;;;10250292;28;92639;-62
2022/12/28 19:24:11;;;;;;;;;;;18.20;74.70;;;;;;10251083;28;94554;-62
2022/12/28 19:29:14;;;;;;;;;;;18.20;74.60;;;;;;10250266;28;93382;-62
2022/12/28 19:34:15;;;;;;;;;;;18.20;74.60;;;;;;10247437;28;93176;-62
2022/12/28 19:39:18;;;;;;;;;;;18.20;74.50;;;;;;10245371;28;93486;-61
2022/12/28 19:44:20;;;;;;;;;;;18.10;74.80;;;;;;10264125;28;94217;-62
2022/12/28 19:49:21;;;;;;;;;;;18.10;74.80;;;;;;10262093;28;96854;-62
2022/12/28 19:54:23;;;;;;;;;;;18.10;74.90;;;;;;10249309;28;93487;-62
2022/12/28 19:59:24;;;;;;;;;;;18.10;75.10;;;;;;10249770;28;93279;-60
2022/12/28 20:04:26;;;;;;;;;;;18.00;75.20;;;;;;10249461;28;93283;-60
2022/12/28 20:09:28;;;;;;;;;;;18.00;75.60;;;;;;10264677;28;93521;-60
2022/12/28 20:14:30;;;;;;;;;;;18.00;75.70;;;;;;10248610;28;93431;-60
2022/12/28 20:19:31;;;;;;;;;;;18.00;75.80;;;;;;10249743;28;94039;-60
2022/12/28 20:24:33;;;;;;;;;;;18.00;75.90;;;;;;10247542;28;92763;-61
2022/12/28 20:29:35;;;;;;;;;;;18.00;75.60;;;;;;10262089;28;94476;-61
2022/12/28 20:34:37;;;;;;;;;;;17.90;75.30;;;;;;10244720;28;93554;-61
2022/12/28 20:39:39;;;;;;;;;;;17.90;75.50;;;;;;10237950;28;95340;-62
2022/12/28 20:44:40;;;;;;;;;;;17.80;75.50;;;;;;10256869;28;94255;-61
2022/12/28 20:49:42;;;;;;;;;;;17.70;75.50;;;;;;10243383;28;93548;-61
2022/12/28 20:54:45;;;;;;;;;;;17.70;75.40;;;;;;10257054;28;94913;-62
2022/12/28 20:59:47;;;;;;;;;;;17.70;75.40;;;;;;10258650;28;94079;-61
2022/12/28 21:04:48;;;;;;;;;;;17.70;75.50;;;;;;10244967;28;93661;-61
2022/12/28 21:09:50;;;;;;;;;;;17.60;75.50;;;;;;10245688;28;93329;-60
2022/12/28 21:14:52;;;;;;;;;;;17.60;75.50;;;;;;10246683;28;93612;-61
2022/12/28 21:19:54;;;;;;;;;;;17.60;75.50;;;;;;10245972;28;93342;-62
2022/12/28 21:24:55;;;;;;;;;;;17.50;75.30;;;;;;10244431;28;94415;-62
2022/12/28 21:29:57;;;;;;;;;;;17.50;75.50;;;;;;10242210;28;95847;-62
2022/12/28 21:34:59;;;;;;;;;;;17.50;75.30;;;;;;10243793;28;93205;-62
2022/12/28 21:40:05;;;;;;;;;;;17.50;75.40;;;;;;10244854;28;93482;-63
2022/12/28 21:45:07;;;;;;;;;;;17.50;75.50;;;;;;10244682;28;93226;-63
2022/12/28 21:50:09;;;;;;;;;;;17.40;75.30;;;;;;10244983;28;93738;-62
2022/12/28 22:06:03;;;;;;;;;;;17.40;75.30;;;;;;10245672;28;93663;-62
2022/12/28 22:16:25;;;;;;;;;;;17.30;75.30;;;;;;10247382;28;94537;-62
2022/12/28 22:21:27;;;;;;;;;;;17.30;75.10;;;;;;10244150;28;95806;-62
2022/12/28 22:26:28;;;;;;;;;;;17.30;75.30;;;;;;10250474;28;93478;-63
2022/12/28 22:31:30;;;;;;;;;;;17.30;75.00;;;;;;10264492;28;93295;-62
2022/12/28 22:36:32;;;;;;;;;;;17.30;74.90;;;;;;10250499;28;93730;-62
2022/12/28 22:41:34;;;;;;;;;;;17.30;75.10;;;;;;10249646;28;93210;-62
2022/12/28 22:46:35;;;;;;;;;;;17.20;74.90;;;;;;10249989;28;94404;-62
2022/12/28 22:51:37;;;;;;;;;;;17.20;75.20;;;;;;10250089;28;93666;-61
2022/12/28 22:56:39;;;;;;;;;;;17.20;76.00;;;;;;10250802;28;91742;-60
2022/12/28 23:01:40;;;;;;;;;;;17.20;75.00;;;;;;10249236;28;93298;-60
2022/12/28 23:06:43;;;;;;;;;;;17.20;75.20;;;;;;10249964;28;93259;-61
2022/12/28 23:11:44;;;;;;;;;;;17.20;74.90;;;;;;10246345;28;94990;-61
2022/12/28 23:16:46;;;;;;;;;;;17.20;75.10;;;;;;10249724;28;94731;-61
2022/12/28 23:27:20;;;;;;;;;;;17.10;75.20;;;;;;10249739;28;93415;-61
2022/12/28 23:32:22;;;;;;;;;;;17.10;75.20;;;;;;10247246;28;94519;-61
2022/12/28 23:37:23;;;;;;;;;;;17.10;75.10;;;;;;10247886;28;94335;-61
2022/12/28 23:42:25;;;;;;;;;;;17.10;75.70;;;;;;10246953;28;93604;-61
2022/12/28 23:47:27;;;;;;;;;;;17.10;75.50;;;;;;10248677;28;95874;-61
2022/12/28 23:52:29;;;;;;;;;;;17.10;75.50;;;;;;10247862;28;93429;-61
2022/12/28 23:57:31;;;;;;;;;;;17.10;75.70;;;;;;10247292;28;93315;-61
